Time;durP1;ratioP1;P1;durP2;ratioP2;P2;SDS_P1;SDS_P2;PMS_P1;PMS_P2;Temp;Humidity;BMP_temperature;BMP_pressure;BME280_temperature;BME280_humidity;BME280_pressure;Samples;Min_cycle;Max_cycle;Signal;HPM_P1;HPM_P2
2024/01/05 00:00:09;;;;;;;5.53;4.43;;;13.50;69.80;;;;;;349806;28;1119;-58
2024/01/05 00:00:20;;;;;;;5.50;4.43;;;13.50;69.80;;;;;;349793;28;927;-56
2024/01/05 00:00:31;;;;;;;5.82;4.80;;;13.50;69.80;;;;;;349883;28;2062;-56
2024/01/05 00:00:41;;;;;;;5.60;5.10;;;13.50;69.80;;;;;;349907;28;1018;-58
2024/01/05 00:00:52;;;;;;;5.45;4.95;;;13.50;69.70;;;;;;349830;28;1177;-55
2024/01/05 00:01:03;;;;;;;5.30;4.80;;;13.50;69.70;;;;;;349849;28;1114;-56
2024/01/05 00:01:14;;;;;;;4.95;4.45;;;13.50;69.70;;;;;;349774;28;939;-56
2024/01/05 00:01:25;;;;;;;5.90;4.15;;;13.50;69.70;;;;;;349846;28;867;-56
2024/01/05 00:01:35;;;;;;;6.18;4.22;;;13.50;69.70;;;;;;349828;28;1034;-56
2024/01/05 00:01:46;;;;;;;6.43;4.32;;;13.50;69.70;;;;;;349872;28;1022;-56
2024/01/05 00:01:57;;;;;;;4.93;4.43;;;13.50;69.60;;;;;;349865;28;995;-57
2024/01/05 00:02:08;;;;;;;4.65;4.25;;;13.50;69.50;;;;;;349750;28;1300;-56
2024/01/05 00:02:18;;;;;;;4.88;4.47;;;13.50;69.60;;;;;;349770;28;1115;-55
2024/01/05 00:02:29;;;;;;;4.78;4.38;;;13.50;69.60;;;;;;349825;28;1154;-55
2024/01/05 00:02:40;;;;;;;4.80;4.40;;;13.50;69.60;;;;;;349863;28;872;-56
2024/01/05 00:02:54;;;;;;;4.60;4.20;;;13.50;69.60;;;;;;349869;28;1023;-55
2024/01/05 00:03:04;;;;;;;4.68;4.28;;;13.50;69.60;;;;;;349725;28;1197;-55
2024/01/05 00:03:15;;;;;;;4.70;4.30;;;13.50;69.70;;;;;;349830;28;864;-55
2024/01/05 00:03:26;;;;;;;4.53;4.13;;;13.50;69.70;;;;;;349826;28;1207;-55
2024/01/05 00:03:37;;;;;;;4.80;4.10;;;13.50;69.70;;;;;;349800;28;1473;-56
2024/01/05 00:03:47;;;;;;;5.10;4.27;;;13.50;69.70;;;;;;349847;28;895;-57
2024/01/05 00:03:58;;;;;;;5.18;4.50;;;13.50;69.60;;;;;;349881;28;1089;-56
2024/01/05 00:04:09;;;;;;;4.90;4.40;;;13.50;69.70;;;;;;349793;28;1902;-56
2024/01/05 00:04:20;;;;;;;4.70;4.20;;;13.50;69.70;;;;;;349849;28;801;-56
2024/01/05 00:04:30;;;;;;;4.75;4.25;;;13.50;69.70;;;;;;349812;28;1507;-56
2024/01/05 00:04:41;;;;;;;4.80;4.30;;;13.50;69.60;;;;;;349800;28;926;-55
2024/01/05 00:04:52;;;;;;;4.80;4.35;;;13.50;69.60;;;;;;349844;28;1054;-55
2024/01/05 00:05:03;;;;;;;4.82;4.30;;;13.50;69.50;;;;;;349876;28;925;-56
2024/01/05 00:05:14;;;;;;;5.75;4.43;;;13.50;69.50;;;;;;349824;28;1222;-56
2024/01/05 00:05:27;;;;;;;5.28;4.30;;;13.50;69.50;;;;;;349736;28;1523;-56
2024/01/05 00:05:39;;;;;;;5.80;4.50;;;13.50;69.50;;;;;;349921;28;910;-57
2024/01/05 00:05:50;;;;;;;6.24;4.52;;;13.50;69.50;;;;;;349830;28;1377;-55
2024/01/05 00:06:01;;;;;;;7.17;4.57;;;13.50;69.50;;;;;;349822;28;1515;-56
2024/01/05 00:06:12;;;;;;;6.35;4.45;;;13.50;69.50;;;;;;349784;28;903;-55
2024/01/05 00:06:22;;;;;;;5.70;4.35;;;13.50;69.50;;;;;;349845;28;931;-57
2024/01/05 00:06:37;;;;;;;4.97;4.47;;;13.50;69.50;;;;;;349884;28;975;-56
2024/01/05 00:06:49;;;;;;;4.88;4.43;;;13.50;69.60;;;;;;349875;28;907;-57
2024/01/05 00:07:00;;;;;;;4.78;4.38;;;13.50;69.50;;;;;;349768;28;1051;-56
2024/01/05 00:07:11;;;;;;;5.10;4.60;;;13.50;69.60;;;;;;349876;28;1015;-58
2024/01/05 00:07:21;;;;;;;5.25;4.75;;;13.50;69.60;;;;;;349763;28;1325;-56
2024/01/05 00:07:32;;;;;;;5.35;4.85;;;13.50;69.60;;;;;;349827;28;1110;-58
2024/01/05 00:07:43;;;;;;;6.13;4.80;;;13.50;69.60;;;;;;349776;28;1101;-56
2024/01/05 00:07:54;;;;;;;6.18;4.82;;;13.50;69.60;;;;;;349820;28;1106;-56
2024/01/05 00:08:05;;;;;;;7.10;5.07;;;13.50;69.60;;;;;;349885;28;1010;-55
2024/01/05 00:08:16;;;;;;;6.43;5.35;;;13.50;69.60;;;;;;349864;28;908;-57
2024/01/05 00:08:26;;;;;;;5.78;5.28;;;13.50;69.60;;;;;;349803;28;965;-57
2024/01/05 00:08:37;;;;;;;5.73;5.23;;;13.50;69.60;;;;;;349885;28;880;-56
2024/01/05 00:08:48;;;;;;;5.70;5.20;;;13.50;69.60;;;;;;349796;28;1512;-57
2024/01/05 00:08:59;;;;;;;5.97;5.47;;;13.40;69.60;;;;;;349851;28;837;-56
2024/01/05 00:09:10;;;;;;;6.13;5.63;;;13.50;69.70;;;;;;349768;28;1074;-55
2024/01/05 00:09:21;;;;;;;6.40;5.80;;;13.40;69.70;;;;;;349866;28;971;-56
2024/01/05 00:09:32;;;;;;;6.70;5.95;;;13.40;69.70;;;;;;349901;28;797;-56
2024/01/05 00:09:42;;;;;;;6.43;5.70;;;13.40;69.70;;;;;;349808;28;1953;-55
2024/01/05 00:09:53;;;;;;;6.63;5.88;;;13.40;69.70;;;;;;349807;28;1027;-56
2024/01/05 00:10:04;;;;;;;6.57;5.97;;;13.50;69.80;;;;;;349827;28;1245;-56
2024/01/05 00:10:16;;;;;;;7.00;6.30;;;13.40;69.80;;;;;;349799;28;1031;-57
2024/01/05 00:10:26;;;;;;;7.03;6.32;;;13.40;69.80;;;;;;349876;28;1062;-55
2024/01/05 00:10:37;;;;;;;7.53;6.78;;;13.40;69.80;;;;;;349770;28;1010;-57
2024/01/05 00:10:48;;;;;;;8.25;7.45;;;13.40;69.90;;;;;;349755;28;1211;-55
2024/01/05 00:10:59;;;;;;;8.93;8.13;;;13.40;69.80;;;;;;349805;28;1158;-57
2024/01/05 00:11:19;;;;;;;9.18;8.38;;;13.40;69.80;;;;;;349844;28;995;-57
2024/01/05 00:11:30;;;;;;;9.30;8.50;;;13.40;69.70;;;;;;349804;28;1089;-55
2024/01/05 00:11:40;;;;;;;9.23;8.43;;;13.40;69.70;;;;;;349797;28;1384;-57
2024/01/05 00:11:51;;;;;;;9.32;8.52;;;13.40;69.70;;;;;;349826;28;1825;-55
2024/01/05 00:12:03;;;;;;;8.93;8.07;;;13.40;69.70;;;;;;349758;28;1090;-57
2024/01/05 00:12:14;;;;;;;8.48;7.68;;;13.40;69.80;;;;;;349800;28;995;-58
2024/01/05 00:12:25;;;;;;;8.20;7.40;;;13.40;69.70;;;;;;349937;28;876;-57
2024/01/05 00:12:36;;;;;;;8.25;7.45;;;13.40;69.70;;;;;;349847;28;962;-56
2024/01/05 00:12:47;;;;;;;8.52;7.72;;;13.40;69.80;;;;;;349776;28;1032;-56
2024/01/05 00:12:57;;;;;;;8.15;7.35;;;13.40;69.80;;;;;;349796;28;1580;-56
2024/01/05 00:13:08;;;;;;;7.90;7.07;;;13.40;69.80;;;;;;349831;28;1115;-56
2024/01/05 00:13:19;;;;;;;7.70;6.90;;;13.40;69.90;;;;;;349836;28;1067;-56
2024/01/05 00:13:30;;;;;;;7.60;6.80;;;13.40;69.90;;;;;;349784;28;1038;-56
2024/01/05 00:13:40;;;;;;;7.22;6.53;;;13.40;69.80;;;;;;349855;28;883;-55
2024/01/05 00:13:51;;;;;;;6.93;6.23;;;13.40;69.80;;;;;;349840;28;912;-57
2024/01/05 00:14:02;;;;;;;6.22;5.63;;;13.40;69.80;;;;;;349819;28;1158;-56
2024/01/05 00:14:13;;;;;;;6.32;5.60;;;13.40;69.80;;;;;;349783;28;1046;-56
2024/01/05 00:14:24;;;;;;;6.13;5.50;;;13.40;69.80;;;;;;349808;28;939;-55
2024/01/05 00:14:37;;;;;;;6.88;5.72;;;13.40;69.80;;;;;;349783;28;575;-55
2024/01/05 00:14:48;;;;;;;6.47;5.75;;;13.40;69.80;;;;;;349820;28;1169;-56
2024/01/05 00:14:59;;;;;;;6.15;5.50;;;13.40;69.70;;;;;;349713;28;1056;-55
2024/01/05 00:15:12;;;;;;;6.00;5.40;;;13.40;69.70;;;;;;349830;28;1118;-57
2024/01/05 00:15:23;;;;;;;7.13;5.85;;;13.40;69.70;;;;;;349801;28;1347;-55
2024/01/05 00:15:34;;;;;;;8.18;6.55;;;13.40;69.70;;;;;;349833;28;959;-55
2024/01/05 00:15:45;;;;;;;7.85;6.35;;;13.30;69.60;;;;;;349760;28;1048;-57
2024/01/05 00:15:56;;;;;;;6.93;6.07;;;13.40;69.60;;;;;;349904;28;829;-55
2024/01/05 00:16:07;;;;;;;6.77;6.07;;;13.30;69.60;;;;;;349822;28;1018;-56
2024/01/05 00:16:18;;;;;;;7.50;6.80;;;13.40;69.70;;;;;;349807;28;1023;-57
2024/01/05 00:16:28;;;;;;;8.13;7.33;;;13.30;69.70;;;;;;349814;28;1024;-56
2024/01/05 00:16:39;;;;;;;8.60;7.80;;;13.40;69.70;;;;;;349785;28;1054;-57
2024/01/05 00:16:52;;;;;;;9.02;8.23;;;13.40;69.70;;;;;;349843;28;1035;-59
2024/01/05 00:17:03;;;;;;;8.77;7.88;;;13.30;69.70;;;;;;349848;28;1397;-56
2024/01/05 00:17:14;;;;;;;8.13;7.22;;;13.40;69.80;;;;;;349692;28;1493;-57
2024/01/05 00:17:24;;;;;;;7.85;6.78;;;13.30;69.70;;;;;;349799;28;1090;-57
2024/01/05 00:17:35;;;;;;;7.10;6.40;;;13.30;69.70;;;;;;349887;28;978;-58
2024/01/05 00:17:46;;;;;;;6.97;6.28;;;13.40;69.70;;;;;;349829;28;1106;-56
2024/01/05 00:17:57;;;;;;;6.70;6.00;;;13.30;69.70;;;;;;349748;28;1043;-57
2024/01/05 00:18:08;;;;;;;6.93;6.13;;;13.30;69.70;;;;;;349810;28;1164;-55
2024/01/05 00:18:19;;;;;;;6.80;6.10;;;13.30;69.70;;;;;;349793;28;1174;-57
2024/01/05 00:18:30;;;;;;;6.75;6.05;;;13.30;69.60;;;;;;349837;28;1054;-56
2024/01/05 00:18:40;;;;;;;6.45;5.85;;;13.30;69.60;;;;;;349850;28;875;-56
2024/01/05 00:18:51;;;;;;;6.50;5.75;;;13.30;69.70;;;;;;349783;28;1153;-59
2024/01/05 00:19:02;;;;;;;6.82;5.63;;;13.30;69.60;;;;;;349856;28;832;-55
2024/01/05 00:19:13;;;;;;;7.40;5.97;;;13.30;69.70;;;;;;349861;28;908;-57
2024/01/05 00:19:24;;;;;;;7.28;6.05;;;13.30;69.60;;;;;;349741;28;1027;-57
2024/01/05 00:19:34;;;;;;;6.65;5.95;;;13.30;69.60;;;;;;349811;28;1050;-56
2024/01/05 00:19:45;;;;;;;6.63;5.93;;;13.30;69.60;;;;;;349747;28;926;-55
2024/01/05 00:19:56;;;;;;;7.03;6.28;;;13.30;69.60;;;;;;349818;28;1032;-55
2024/01/05 00:20:08;;;;;;;7.87;7.07;;;13.30;69.60;;;;;;349822;28;959;-57
2024/01/05 00:20:19;;;;;;;7.80;7.00;;;13.30;69.60;;;;;;349768;28;904;-55
2024/01/05 00:20:30;;;;;;;7.30;6.57;;;13.30;69.50;;;;;;349726;28;1437;-57
2024/01/05 00:20:40;;;;;;;6.73;6.03;;;13.30;69.50;;;;;;349836;28;959;-56
2024/01/05 00:20:51;;;;;;;6.47;5.80;;;13.30;69.50;;;;;;349824;28;1042;-55
2024/01/05 00:21:02;;;;;;;6.50;5.85;;;13.30;69.50;;;;;;349878;28;832;-55
2024/01/05 00:21:23;;;;;;;6.50;5.80;;;13.30;69.40;;;;;;349822;28;976;-57
2024/01/05 00:21:34;;;;;;;6.13;5.50;;;13.30;69.50;;;;;;349786;28;864;-57
2024/01/05 00:21:44;;;;;;;7.07;5.57;;;13.30;69.50;;;;;;349842;28;1090;-56
2024/01/05 00:21:56;;;;;;;6.80;5.57;;;13.30;69.40;;;;;;349726;28;1407;-56
2024/01/05 00:22:07;;;;;;;6.40;5.40;;;13.30;69.40;;;;;;349806;28;1303;-58
2024/01/05 00:22:17;;;;;;;5.97;5.30;;;13.30;69.40;;;;;;349818;28;1030;-58
2024/01/05 00:22:28;;;;;;;6.07;5.22;;;13.30;69.40;;;;;;349894;28;1010;-57
2024/01/05 00:22:40;;;;;;;5.77;5.17;;;13.30;69.50;;;;;;349747;28;1087;-56
2024/01/05 00:22:50;;;;;;;5.47;4.97;;;13.30;69.50;;;;;;349862;28;1015;-57
2024/01/05 00:23:01;;;;;;;5.97;5.10;;;13.30;69.50;;;;;;349817;28;1052;-57
2024/01/05 00:23:12;;;;;;;6.38;5.50;;;13.30;69.50;;;;;;349878;28;831;-56
2024/01/05 00:23:23;;;;;;;6.33;5.37;;;13.20;69.50;;;;;;349742;28;808;-57
2024/01/05 00:23:33;;;;;;;6.03;5.43;;;13.20;69.60;;;;;;349820;28;1110;-56
2024/01/05 00:23:44;;;;;;;6.22;5.60;;;13.20;69.60;;;;;;349852;28;1045;-56
2024/01/05 00:23:56;;;;;;;6.60;5.93;;;13.30;69.60;;;;;;349810;28;1023;-56
2024/01/05 00:24:07;;;;;;;6.25;5.65;;;13.20;69.60;;;;;;349632;28;1902;-56
2024/01/05 00:24:18;;;;;;;6.38;5.78;;;13.30;69.60;;;;;;349811;28;1820;-58
2024/01/05 00:24:29;;;;;;;6.23;5.63;;;13.20;69.70;;;;;;349879;28;916;-56
2024/01/05 00:24:39;;;;;;;6.43;5.70;;;13.30;69.70;;;;;;349915;28;828;-55
2024/01/05 00:24:50;;;;;;;7.43;5.75;;;13.20;69.70;;;;;;349723;28;1915;-56
2024/01/05 00:25:02;;;;;;;7.22;5.80;;;13.20;69.70;;;;;;349784;28;1035;-56
2024/01/05 00:25:12;;;;;;;6.63;5.65;;;13.20;69.70;;;;;;349826;28;1022;-56
2024/01/05 00:25:23;;;;;;;6.57;5.70;;;13.20;69.70;;;;;;349855;28;1038;-57
2024/01/05 00:25:34;;;;;;;6.72;5.75;;;13.20;69.80;;;;;;349768;28;1053;-55
2024/01/05 00:25:45;;;;;;;6.90;5.97;;;13.30;69.80;;;;;;349869;28;1065;-56
2024/01/05 00:25:55;;;;;;;7.05;6.07;;;13.20;69.80;;;;;;349839;28;1033;-56
2024/01/05 00:26:06;;;;;;;6.97;6.27;;;13.20;69.80;;;;;;349859;28;863;-56
2024/01/05 00:26:18;;;;;;;7.18;6.28;;;13.20;69.80;;;;;;349725;28;1309;-56
2024/01/05 00:26:28;;;;;;;7.20;6.00;;;13.20;69.80;;;;;;349858;28;1050;-56
2024/01/05 00:26:41;;;;;;;7.75;5.75;;;13.20;69.90;;;;;;349871;28;836;-56
2024/01/05 00:26:52;;;;;;;7.97;5.90;;;13.20;69.90;;;;;;349803;28;1046;-56
2024/01/05 00:27:03;;;;;;;7.32;5.70;;;13.20;69.90;;;;;;349701;28;1524;-55
2024/01/05 00:27:15;;;;;;;7.90;5.78;;;13.20;69.90;;;;;;349789;28;1035;-57
2024/01/05 00:27:26;;;;;;;7.68;5.93;;;13.20;69.80;;;;;;349809;28;1053;-57
2024/01/05 00:27:37;;;;;;;6.95;5.93;;;13.20;69.80;;;;;;349823;28;999;-55
2024/01/05 00:27:50;;;;;;;6.63;5.78;;;13.20;69.80;;;;;;349655;28;1613;-54
2024/01/05 00:28:01;;;;;;;6.70;5.80;;;13.20;69.80;;;;;;349823;28;921;-57
2024/01/05 00:28:11;;;;;;;6.30;5.70;;;13.20;69.80;;;;;;349784;28;1475;-56
2024/01/05 00:28:22;;;;;;;6.28;5.68;;;13.20;69.70;;;;;;349770;28;2061;-56
2024/01/05 00:28:33;;;;;;;6.25;5.65;;;13.20;69.70;;;;;;349726;28;1153;-57
2024/01/05 00:28:45;;;;;;;6.43;5.80;;;13.20;69.70;;;;;;349825;28;896;-57
2024/01/05 00:28:56;;;;;;;6.05;5.43;;;13.20;69.70;;;;;;349873;28;1532;-57
2024/01/05 00:29:07;;;;;;;5.60;5.00;;;13.20;69.70;;;;;;349870;28;848;-57
2024/01/05 00:29:18;;;;;;;5.80;5.20;;;13.20;69.70;;;;;;349788;28;855;-55
2024/01/05 00:29:29;;;;;;;5.88;5.38;;;13.20;69.70;;;;;;349781;28;1258;-56
2024/01/05 00:29:40;;;;;;;6.15;5.63;;;13.20;69.60;;;;;;349847;28;903;-55
2024/01/05 00:29:50;;;;;;;5.93;5.40;;;13.20;69.60;;;;;;349806;28;1018;-56
2024/01/05 00:30:03;;;;;;;6.10;5.50;;;13.20;69.60;;;;;;349717;28;1049;-57
2024/01/05 00:30:14;;;;;;;6.38;5.78;;;13.20;69.60;;;;;;349876;28;926;-55
2024/01/05 00:30:25;;;;;;;6.72;6.03;;;13.20;69.50;;;;;;349804;28;978;-56
2024/01/05 00:30:35;;;;;;;6.72;6.03;;;13.20;69.50;;;;;;349816;28;1069;-55
2024/01/05 00:30:46;;;;;;;6.50;5.80;;;13.20;69.40;;;;;;349644;28;1015;-56
2024/01/05 00:30:59;;;;;;;6.45;5.55;;;13.20;69.50;;;;;;349851;28;1074;-57
2024/01/05 00:31:11;;;;;;;6.57;5.40;;;13.20;69.50;;;;;;349787;28;1023;-55
2024/01/05 00:31:21;;;;;;;6.78;5.40;;;13.20;69.50;;;;;;349792;28;1164;-56
2024/01/05 00:31:32;;;;;;;6.57;5.30;;;13.20;69.50;;;;;;349709;28;1701;-54
2024/01/05 00:31:43;;;;;;;6.03;4.90;;;13.20;69.40;;;;;;349828;28;840;-55
2024/01/05 00:31:54;;;;;;;5.13;4.57;;;13.20;69.40;;;;;;349800;28;895;-54
2024/01/05 00:32:05;;;;;;;5.00;4.50;;;13.20;69.30;;;;;;349846;28;888;-57
2024/01/05 00:32:16;;;;;;;5.22;4.72;;;13.20;69.20;;;;;;349744;28;946;-56
2024/01/05 00:32:27;;;;;;;5.50;4.83;;;13.20;69.20;;;;;;349850;28;808;-57
2024/01/05 00:32:38;;;;;;;5.63;5.00;;;13.20;69.20;;;;;;349834;28;789;-56
2024/01/05 00:32:48;;;;;;;5.25;4.75;;;13.20;69.20;;;;;;349795;28;1085;-56
2024/01/05 00:33:00;;;;;;;5.32;4.80;;;13.20;69.30;;;;;;349796;28;1048;-56
2024/01/05 00:33:11;;;;;;;6.05;4.90;;;13.20;69.30;;;;;;349772;28;1190;-56
2024/01/05 00:33:22;;;;;;;6.37;4.97;;;13.20;69.30;;;;;;349750;28;1461;-56
2024/01/05 00:33:32;;;;;;;5.60;4.90;;;13.20;69.40;;;;;;349779;28;1027;-58
2024/01/05 00:33:44;;;;;;;5.15;4.63;;;13.20;69.40;;;;;;349746;28;1082;-56
2024/01/05 00:33:55;;;;;;;5.38;4.88;;;13.20;69.40;;;;;;349810;28;1030;-57
2024/01/05 00:34:06;;;;;;;5.55;5.00;;;13.20;69.40;;;;;;349842;28;876;-55
2024/01/05 00:34:16;;;;;;;5.65;5.05;;;13.20;69.40;;;;;;349785;28;1320;-56
2024/01/05 00:34:27;;;;;;;5.53;4.70;;;13.20;69.40;;;;;;349792;28;910;-55
2024/01/05 00:34:38;;;;;;;5.53;4.53;;;13.20;69.40;;;;;;349793;28;1077;-56
2024/01/05 00:34:49;;;;;;;5.40;4.65;;;13.20;69.40;;;;;;349852;28;844;-56
2024/01/05 00:34:59;;;;;;;5.97;4.95;;;13.20;69.50;;;;;;349860;28;824;-56
2024/01/05 00:35:10;;;;;;;5.83;4.97;;;13.20;69.50;;;;;;349719;28;1158;-55
2024/01/05 00:35:21;;;;;;;6.28;5.05;;;13.20;69.40;;;;;;349804;28;927;-55
2024/01/05 00:35:32;;;;;;;5.75;4.95;;;13.20;69.50;;;;;;349822;28;1030;-56
2024/01/05 00:35:42;;;;;;;6.18;5.20;;;13.20;69.50;;;;;;349735;28;1002;-55
2024/01/05 00:35:53;;;;;;;5.80;5.20;;;13.10;69.50;;;;;;349808;28;983;-58
2024/01/05 00:36:05;;;;;;;6.03;5.27;;;13.10;69.50;;;;;;349855;28;863;-57
2024/01/05 00:36:16;;;;;;;5.86;5.18;;;13.20;69.50;;;;;;349665;28;1558;-55
2024/01/05 00:36:27;;;;;;;5.43;4.90;;;13.10;69.50;;;;;;349819;28;966;-56
2024/01/05 00:36:37;;;;;;;5.40;4.90;;;13.10;69.60;;;;;;349765;28;1037;-55
2024/01/05 00:36:48;;;;;;;5.20;4.70;;;13.20;69.60;;;;;;349857;28;880;-54
2024/01/05 00:36:59;;;;;;;5.45;4.85;;;13.10;69.60;;;;;;349835;28;900;-55
2024/01/05 00:37:10;;;;;;;6.28;4.70;;;13.10;69.50;;;;;;349736;28;991;-55
2024/01/05 00:37:20;;;;;;;6.90;4.80;;;13.10;69.50;;;;;;349825;28;805;-55
2024/01/05 00:37:31;;;;;;;6.95;4.68;;;13.10;69.50;;;;;;349770;28;1019;-56
2024/01/05 00:37:42;;;;;;;5.38;4.68;;;13.10;69.50;;;;;;349676;28;1115;-54
2024/01/05 00:37:53;;;;;;;5.90;4.70;;;13.10;69.40;;;;;;349797;28;840;-55
2024/01/05 00:38:04;;;;;;;5.60;4.67;;;13.10;69.40;;;;;;349823;28;1745;-55
2024/01/05 00:38:15;;;;;;;5.43;4.43;;;13.10;69.40;;;;;;349684;28;971;-55
2024/01/05 00:38:26;;;;;;;6.72;4.60;;;13.10;69.40;;;;;;349814;28;828;-55
2024/01/05 00:38:37;;;;;;;7.23;4.80;;;13.10;69.40;;;;;;349847;28;1870;-56
2024/01/05 00:38:49;;;;;;;7.20;5.15;;;13.10;69.40;;;;;;349744;28;1012;-56
2024/01/05 00:38:59;;;;;;;6.47;5.22;;;13.10;69.30;;;;;;349769;28;1388;-56
2024/01/05 00:39:10;;;;;;;5.83;4.93;;;13.20;69.30;;;;;;349774;28;888;-55
2024/01/05 00:39:21;;;;;;;5.32;4.72;;;13.10;69.30;;;;;;349738;28;1326;-56
2024/01/05 00:39:32;;;;;;;5.20;4.70;;;13.10;69.30;;;;;;349764;28;1154;-55
2024/01/05 00:39:43;;;;;;;5.70;5.10;;;13.10;69.30;;;;;;349750;28;1065;-56
2024/01/05 00:39:53;;;;;;;6.75;5.38;;;13.10;69.20;;;;;;349836;28;1056;-57
2024/01/05 00:40:06;;;;;;;6.60;5.28;;;13.10;69.20;;;;;;349806;28;1078;-56
2024/01/05 00:40:16;;;;;;;6.18;5.13;;;13.10;69.30;;;;;;349742;28;1043;-56
2024/01/05 00:40:27;;;;;;;5.45;4.80;;;13.10;69.30;;;;;;349889;28;836;-57
2024/01/05 00:40:38;;;;;;;5.67;4.67;;;13.10;69.30;;;;;;349725;28;1482;-56
2024/01/05 00:40:48;;;;;;;6.50;4.65;;;13.10;69.30;;;;;;349854;28;963;-56
2024/01/05 00:40:59;;;;;;;5.95;4.53;;;13.10;69.20;;;;;;349833;28;812;-55
2024/01/05 00:41:10;;;;;;;5.30;4.50;;;13.10;69.30;;;;;;349722;28;936;-56
2024/01/05 00:41:21;;;;;;;5.07;4.57;;;13.10;69.30;;;;;;349803;28;867;-56
2024/01/05 00:41:32;;;;;;;5.20;4.70;;;13.10;69.30;;;;;;349777;28;1032;-57
2024/01/05 00:41:46;;;;;;;5.80;4.70;;;13.10;69.30;;;;;;349732;28;1530;-57
2024/01/05 00:41:57;;;;;;;6.35;4.57;;;13.10;69.40;;;;;;349522;28;1404;-55
2024/01/05 00:42:08;;;;;;;6.13;4.78;;;13.10;69.40;;;;;;349724;28;890;-57
2024/01/05 00:42:19;;;;;;;5.53;4.93;;;13.00;69.40;;;;;;349804;28;1098;-57
2024/01/05 00:42:30;;;;;;;5.78;5.05;;;13.10;69.40;;;;;;349644;28;2415;-56
2024/01/05 00:42:40;;;;;;;5.53;4.93;;;13.10;69.50;;;;;;349811;28;1016;-57
2024/01/05 00:42:51;;;;;;;5.45;4.95;;;13.00;69.40;;;;;;349781;28;1019;-56
2024/01/05 00:43:02;;;;;;;6.32;5.10;;;13.00;69.50;;;;;;349718;28;1358;-56
2024/01/05 00:43:13;;;;;;;6.63;5.10;;;13.00;69.50;;;;;;349847;28;860;-55
2024/01/05 00:43:23;;;;;;;6.32;5.00;;;13.00;69.50;;;;;;349845;28;844;-55
2024/01/05 00:43:34;;;;;;;5.20;4.70;;;13.00;69.60;;;;;;349667;28;1269;-55
2024/01/05 00:43:45;;;;;;;5.20;4.70;;;13.00;69.60;;;;;;349770;28;2633;-55
2024/01/05 00:43:56;;;;;;;5.43;4.93;;;13.00;69.60;;;;;;349829;28;1022;-56
2024/01/05 00:44:06;;;;;;;5.50;5.00;;;13.00;69.60;;;;;;349730;28;1028;-55
2024/01/05 00:44:17;;;;;;;5.77;5.20;;;13.00;69.50;;;;;;349842;28;948;-56
2024/01/05 00:44:28;;;;;;;5.90;5.10;;;13.00;69.50;;;;;;349832;28;994;-57
2024/01/05 00:44:40;;;;;;;6.30;5.50;;;13.00;69.50;;;;;;349655;28;1103;-56
2024/01/05 00:44:51;;;;;;;6.10;5.40;;;13.00;69.50;;;;;;349774;28;1019;-56
2024/01/05 00:45:02;;;;;;;5.88;5.32;;;13.00;69.60;;;;;;349785;28;1077;-55
2024/01/05 00:45:13;;;;;;;5.80;5.20;;;13.00;69.60;;;;;;349823;28;872;-55
2024/01/05 00:45:24;;;;;;;5.43;4.93;;;13.00;69.50;;;;;;349741;28;1431;-56
2024/01/05 00:45:34;;;;;;;5.30;4.70;;;13.00;69.50;;;;;;349733;28;1040;-55
2024/01/05 00:45:45;;;;;;;5.28;4.55;;;13.00;69.50;;;;;;349779;28;1126;-55
2024/01/05 00:45:56;;;;;;;5.97;4.72;;;13.00;69.40;;;;;;349790;28;1074;-56
2024/01/05 00:46:07;;;;;;;5.88;5.00;;;13.00;69.50;;;;;;349790;28;1078;-55
2024/01/05 00:46:17;;;;;;;5.90;5.30;;;13.00;69.50;;;;;;349761;28;1117;-56
2024/01/05 00:46:28;;;;;;;6.13;5.22;;;13.00;69.50;;;;;;349669;28;1576;-55
2024/01/05 00:46:39;;;;;;;6.60;5.05;;;13.00;69.60;;;;;;349718;28;999;-55
2024/01/05 00:46:50;;;;;;;6.50;4.90;;;13.00;69.60;;;;;;349802;28;1002;-55
2024/01/05 00:47:00;;;;;;;6.43;5.07;;;13.00;69.60;;;;;;349757;28;1533;-56
2024/01/05 00:47:11;;;;;;;6.13;4.95;;;13.00;69.60;;;;;;349836;28;991;-54
2024/01/05 00:47:22;;;;;;;5.53;4.75;;;13.00;69.60;;;;;;349672;28;1280;-56
2024/01/05 00:47:32;;;;;;;5.60;4.80;;;13.00;69.60;;;;;;349782;28;999;-56
2024/01/05 00:47:43;;;;;;;5.53;4.90;;;13.00;69.70;;;;;;349753;28;1102;-56
2024/01/05 00:47:54;;;;;;;5.63;4.97;;;13.00;69.70;;;;;;349843;28;1011;-55
2024/01/05 00:48:05;;;;;;;5.40;4.90;;;13.00;69.60;;;;;;349800;28;978;-56
2024/01/05 00:48:16;;;;;;;5.80;4.95;;;13.00;69.60;;;;;;349760;28;1216;-56
2024/01/05 00:48:26;;;;;;;6.13;4.95;;;13.00;69.60;;;;;;349753;28;2078;-55
2024/01/05 00:48:37;;;;;;;7.47;5.10;;;13.00;69.50;;;;;;349752;28;1174;-55
2024/01/05 00:48:48;;;;;;;6.45;5.10;;;13.00;69.50;;;;;;349775;28;853;-55
2024/01/05 00:48:59;;;;;;;6.63;5.00;;;13.00;69.50;;;;;;349780;28;1102;-55
2024/01/05 00:49:10;;;;;;;5.97;5.03;;;13.00;69.50;;;;;;349678;28;1010;-54
2024/01/05 00:49:20;;;;;;;6.20;5.18;;;13.00;69.50;;;;;;349759;28;1159;-56
2024/01/05 00:49:31;;;;;;;6.05;5.30;;;13.00;69.50;;;;;;349708;28;1332;-55
2024/01/05 00:49:42;;;;;;;5.68;5.13;;;13.00;69.50;;;;;;349764;28;986;-54
2024/01/05 00:49:53;;;;;;;5.72;5.20;;;13.00;69.50;;;;;;349752;28;1007;-55
2024/01/05 00:50:04;;;;;;;5.90;5.18;;;13.00;69.50;;;;;;349728;28;1015;-55
2024/01/05 00:50:15;;;;;;;6.55;5.22;;;13.00;69.40;;;;;;349824;28;856;-55
2024/01/05 00:50:26;;;;;;;6.97;5.03;;;13.00;69.50;;;;;;349784;28;919;-55
2024/01/05 00:50:37;;;;;;;6.78;4.68;;;13.00;69.50;;;;;;349756;28;992;-55
2024/01/05 00:50:48;;;;;;;5.65;4.55;;;13.00;69.50;;;;;;349788;28;1925;-55
2024/01/05 00:50:58;;;;;;;6.00;4.80;;;13.00;69.50;;;;;;349794;28;1277;-56
2024/01/05 00:51:09;;;;;;;5.75;4.95;;;13.00;69.50;;;;;;349773;28;1005;-55
2024/01/05 00:51:20;;;;;;;5.80;4.97;;;13.00;69.50;;;;;;349750;28;975;-54
2024/01/05 00:51:31;;;;;;;5.43;4.93;;;13.00;69.60;;;;;;349792;28;1053;-55
2024/01/05 00:51:42;;;;;;;5.45;4.95;;;13.00;69.60;;;;;;349686;28;993;-55
2024/01/05 00:51:52;;;;;;;5.30;4.80;;;13.00;69.60;;;;;;349823;28;825;-55
2024/01/05 00:52:04;;;;;;;5.30;4.80;;;13.00;69.50;;;;;;349777;28;1162;-57
2024/01/05 00:52:15;;;;;;;5.75;4.75;;;13.00;69.50;;;;;;349731;28;1419;-55
2024/01/05 00:52:25;;;;;;;5.88;4.57;;;13.00;69.60;;;;;;349757;28;1012;-55
2024/01/05 00:52:36;;;;;;;6.72;4.70;;;13.00;69.60;;;;;;349747;28;1157;-56
2024/01/05 00:52:47;;;;;;;6.50;5.07;;;13.00;69.70;;;;;;349723;28;1566;-55
2024/01/05 00:52:58;;;;;;;6.32;5.38;;;13.00;69.60;;;;;;349809;28;1019;-55
2024/01/05 00:53:08;;;;;;;5.70;5.20;;;13.00;69.60;;;;;;349805;28;909;-56
2024/01/05 00:53:19;;;;;;;5.20;4.70;;;13.00;69.60;;;;;;349660;28;1564;-56
2024/01/05 00:53:30;;;;;;;5.55;4.88;;;13.00;69.60;;;;;;349781;28;1638;-56
2024/01/05 00:53:41;;;;;;;6.53;5.20;;;13.00;69.70;;;;;;349820;28;994;-55
2024/01/05 00:53:51;;;;;;;7.00;5.40;;;13.00;69.60;;;;;;349684;28;1094;-56
2024/01/05 00:54:02;;;;;;;6.03;5.13;;;13.00;69.60;;;;;;349794;28;1015;-55
2024/01/05 00:54:13;;;;;;;5.40;4.90;;;13.00;69.60;;;;;;349777;28;1306;-55
2024/01/05 00:54:25;;;;;;;5.80;5.00;;;13.00;69.60;;;;;;349713;28;868;-56
2024/01/05 00:54:35;;;;;;;5.68;4.82;;;13.00;69.70;;;;;;349769;28;1515;-56
2024/01/05 00:54:48;;;;;;;5.65;5.05;;;13.00;69.70;;;;;;349853;28;872;-56
2024/01/05 00:54:59;;;;;;;6.20;5.45;;;13.00;69.70;;;;;;349725;28;1463;-55
2024/01/05 00:55:09;;;;;;;6.53;5.63;;;13.00;69.70;;;;;;349745;28;901;-56
2024/01/05 00:55:20;;;;;;;7.13;5.30;;;13.00;69.80;;;;;;349768;28;951;-54
2024/01/05 00:55:31;;;;;;;7.00;5.15;;;13.00;69.80;;;;;;349811;28;913;-56
2024/01/05 00:55:41;;;;;;;7.35;5.10;;;13.00;69.90;;;;;;349787;28;899;-56
2024/01/05 00:55:52;;;;;;;6.40;4.97;;;13.00;69.90;;;;;;349707;28;1106;-55
2024/01/05 00:56:05;;;;;;;5.63;4.77;;;13.00;69.90;;;;;;349838;28;832;-55
2024/01/05 00:56:16;;;;;;;5.30;4.80;;;13.00;69.90;;;;;;349728;28;1602;-55
2024/01/05 00:56:26;;;;;;;5.22;4.72;;;13.00;69.80;;;;;;349813;28;887;-55
2024/01/05 00:56:37;;;;;;;5.23;4.50;;;13.00;69.80;;;;;;349725;28;929;-55
2024/01/05 00:56:48;;;;;;;5.70;4.50;;;13.00;69.90;;;;;;349775;28;1138;-55
2024/01/05 00:56:58;;;;;;;5.55;4.50;;;12.90;69.90;;;;;;349761;28;1024;-55
2024/01/05 00:57:09;;;;;;;5.25;4.50;;;13.00;70.00;;;;;;349704;28;1031;-55
2024/01/05 00:57:20;;;;;;;4.93;4.43;;;12.90;70.00;;;;;;349698;28;994;-55
2024/01/05 00:57:31;;;;;;;5.25;4.72;;;12.90;70.10;;;;;;349795;28;1058;-55
2024/01/05 00:57:42;;;;;;;5.38;4.88;;;12.90;70.10;;;;;;349771;28;1294;-56
2024/01/05 00:57:53;;;;;;;5.20;4.70;;;12.90;70.10;;;;;;349835;28;1002;-56
2024/01/05 00:58:04;;;;;;;5.07;4.57;;;13.00;70.20;;;;;;349659;28;1481;-54
2024/01/05 00:58:15;;;;;;;5.60;4.60;;;12.90;70.20;;;;;;349782;28;1065;-55
2024/01/05 00:58:26;;;;;;;5.95;4.75;;;13.00;70.30;;;;;;349734;28;1899;-55
2024/01/05 00:58:37;;;;;;;5.60;4.70;;;12.90;70.20;;;;;;349804;28;956;-56
2024/01/05 00:58:47;;;;;;;5.17;4.67;;;12.90;70.30;;;;;;349746;28;1014;-56
2024/01/05 00:58:58;;;;;;;5.07;4.57;;;12.90;70.40;;;;;;349782;28;1038;-56
2024/01/05 00:59:11;;;;;;;5.07;4.57;;;12.90;70.40;;;;;;349798;28;1652;-57
2024/01/05 00:59:22;;;;;;;5.20;4.43;;;12.90;70.50;;;;;;349787;28;1057;-55